createdAt,value
2022-12-16T00:00:05.468Z,99.99
2022-12-16T00:01:05.550Z,99.99
2022-12-16T00:02:05.521Z,99.99
2022-12-16T00:03:05.548Z,99.99
2022-12-16T00:04:05.447Z,99.99
2022-12-16T00:05:05.407Z,99.99
2022-12-16T00:06:05.424Z,99.99
2022-12-16T00:07:05.396Z,99.99
2022-12-16T00:08:05.431Z,99.99
2022-12-16T00:09:05.376Z,99.99
2022-12-16T00:10:05.368Z,99.99
2022-12-16T00:11:05.356Z,99.99
2022-12-16T00:12:05.343Z,99.99
2022-12-16T00:13:09.067Z,99.99
2022-12-16T00:14:06.329Z,99.99
2022-12-16T00:15:05.295Z,99.99
2022-12-16T00:16:05.364Z,99.99
2022-12-16T00:17:05.282Z,99.99
2022-12-16T00:18:05.316Z,99.99
2022-12-16T00:19:05.264Z,99.99
2022-12-16T00:20:05.267Z,99.99
2022-12-16T00:21:05.249Z,99.99
2022-12-16T00:22:05.232Z,99.99
2022-12-16T00:23:05.277Z,99.99
2022-12-16T00:24:05.235Z,99.99
2022-12-16T00:25:05.193Z,99.99
2022-12-16T00:26:05.192Z,99.99
2022-12-16T00:27:05.175Z,99.99
2022-12-16T00:28:05.164Z,99.99
2022-12-16T00:29:05.178Z,99.99
2022-12-16T00:30:05.165Z,99.99
2022-12-16T00:31:05.199Z,99.99
2022-12-16T00:32:05.207Z,99.99
2022-12-16T00:33:05.102Z,99.99
2022-12-16T00:34:05.145Z,99.99
2022-12-16T00:35:05.095Z,99.99
2022-12-16T00:36:05.088Z,99.99
2022-12-16T00:37:05.077Z,99.99
2022-12-16T00:38:05.069Z,99.99
2022-12-16T00:39:05.089Z,99.99
2022-12-16T00:40:05.029Z,99.99
2022-12-16T00:41:05.029Z,99.99
2022-12-16T00:42:05.038Z,99.99
2022-12-16T00:43:05.008Z,99.99
2022-12-16T00:44:05.046Z,99.99
2022-12-16T00:45:04.988Z,99.99
2022-12-16T00:46:05.048Z,99.99
2022-12-16T00:47:04.971Z,99.99
2022-12-16T00:48:04.962Z,99.99
2022-12-16T00:49:04.991Z,99.99
2022-12-16T00:50:04.928Z,99.99
2022-12-16T00:51:04.920Z,99.99
2022-12-16T00:52:04.903Z,99.99
2022-12-16T00:53:04.887Z,99.99
2022-12-16T00:54:04.933Z,99.99
2022-12-16T00:55:04.882Z,99.99
2022-12-16T00:56:04.864Z,99.99
2022-12-16T00:57:04.864Z,99.99
2022-12-16T00:58:04.844Z,99.99
2022-12-16T00:59:04.862Z,99.99
2022-12-16T01:00:04.820Z,99.99
2022-12-16T01:01:04.870Z,99.99
2022-12-16T01:02:04.961Z,99.99
2022-12-16T01:03:04.808Z,99.99
2022-12-16T01:04:04.823Z,99.99
2022-12-16T01:05:04.757Z,99.99
2022-12-16T01:06:04.750Z,99.99
2022-12-16T01:07:04.734Z,99.99
2022-12-16T01:08:04.739Z,99.99
2022-12-16T01:09:04.769Z,99.99
2022-12-16T01:10:04.720Z,99.99
2022-12-16T01:11:04.694Z,99.99
2022-12-16T01:12:04.681Z,99.99
2022-12-16T01:13:04.666Z,99.99
2022-12-16T01:14:04.699Z,99.99
2022-12-16T01:15:04.689Z,99.99
2022-12-16T01:16:04.682Z,99.99
2022-12-16T01:17:04.627Z,99.99
2022-12-16T01:18:04.618Z,99.99
2022-12-16T01:19:04.651Z,99.99
2022-12-16T01:20:04.607Z,99.99
2022-12-16T01:21:04.576Z,99.99
2022-12-16T01:22:04.574Z,99.99
2022-12-16T01:23:04.571Z,99.99
2022-12-16T01:24:04.606Z,99.99
2022-12-16T01:25:04.541Z,99.99
2022-12-16T01:26:04.532Z,99.99
2022-12-16T01:27:04.517Z,99.99
2022-12-16T01:28:04.516Z,99.99
2022-12-16T01:29:04.540Z,99.99
2022-12-16T01:30:04.496Z,99.99
2022-12-16T01:31:04.489Z,99.99
2022-12-16T01:32:04.510Z,99.99
2022-12-16T01:33:04.450Z,99.99
2022-12-16T01:34:04.481Z,99.99
2022-12-16T01:35:10.715Z,99.99
2022-12-16T01:36:05.413Z,99.99
2022-12-16T01:37:04.420Z,99.99
2022-12-16T01:38:04.417Z,99.99
2022-12-16T01:39:04.388Z,99.99
2022-12-16T01:40:04.417Z,99.99
2022-12-16T01:41:04.388Z,99.99
2022-12-16T01:42:04.375Z,99.99
2022-12-16T01:43:04.348Z,99.99
2022-12-16T01:44:04.347Z,99.99
2022-12-16T01:45:04.378Z,99.99
2022-12-16T01:46:04.380Z,99.99
2022-12-16T01:47:04.314Z,99.99
2022-12-16T01:48:04.294Z,99.99
2022-12-16T01:49:04.298Z,99.99
2022-12-16T01:50:04.312Z,99.99
2022-12-16T01:51:04.262Z,99.99
2022-12-16T01:52:04.251Z,99.99
2022-12-16T01:53:04.256Z,99.99
2022-12-16T01:54:04.230Z,99.99
2022-12-16T01:55:04.263Z,99.99
2022-12-16T01:56:04.209Z,99.99
2022-12-16T01:57:04.210Z,99.99
2022-12-16T01:58:04.189Z,99.99
2022-12-16T01:59:04.172Z,99.99
2022-12-16T02:00:04.202Z,99.99
2022-12-16T02:01:04.218Z,99.99
2022-12-16T02:02:04.405Z,99.99
2022-12-16T02:03:04.249Z,99.99
2022-12-16T02:04:04.126Z,99.99
2022-12-16T02:05:04.144Z,99.99
2022-12-16T02:06:04.085Z,99.99
2022-12-16T02:07:04.086Z,99.99
2022-12-16T02:08:04.095Z,99.99
2022-12-16T02:09:04.075Z,99.99
2022-12-16T02:10:04.050Z,99.99
2022-12-16T02:11:04.088Z,99.99
2022-12-16T02:12:04.037Z,99.99
2022-12-16T02:13:04.061Z,99.99
2022-12-16T02:14:04.024Z,99.99
2022-12-16T02:15:04.011Z,99.99
2022-12-16T02:16:04.037Z,99.99
2022-12-16T02:17:04.128Z,99.99
2022-12-16T02:18:03.978Z,99.99
2022-12-16T02:19:03.949Z,99.99
2022-12-16T02:20:03.949Z,99.99
2022-12-16T02:21:03.976Z,99.99
2022-12-16T02:22:03.933Z,99.99
2022-12-16T02:23:03.914Z,99.99
2022-12-16T02:24:03.912Z,99.99
2022-12-16T02:25:03.898Z,99.99
2022-12-16T02:26:03.916Z,99.99
2022-12-16T02:27:03.876Z,99.99
2022-12-16T02:28:03.890Z,99.99
2022-12-16T02:29:03.852Z,99.99
2022-12-16T02:30:03.828Z,99.99
2022-12-16T02:31:03.904Z,99.99
2022-12-16T02:32:03.804Z,99.99
2022-12-16T02:33:03.814Z,99.99
2022-12-16T02:34:03.789Z,99.99
2022-12-16T02:35:03.795Z,99.99
2022-12-16T02:36:03.779Z,99.99
2022-12-16T02:37:03.742Z,99.99
2022-12-16T02:38:03.733Z,99.99
2022-12-16T02:39:03.724Z,99.99
2022-12-16T02:40:03.718Z,99.99
2022-12-16T02:41:03.766Z,99.99
2022-12-16T02:42:03.716Z,99.99
2022-12-16T02:43:03.690Z,99.99
2022-12-16T02:44:03.673Z,99.99
2022-12-16T02:45:03.674Z,99.99
2022-12-16T02:46:03.773Z,99.99
2022-12-16T02:47:03.651Z,99.99
2022-12-16T02:48:03.629Z,99.99
2022-12-16T02:49:03.617Z,99.99
2022-12-16T02:50:03.611Z,99.99
2022-12-16T02:51:03.635Z,99.99
2022-12-16T02:52:03.592Z,99.99
2022-12-16T02:53:03.586Z,99.99
2022-12-16T02:54:03.572Z,99.99
2022-12-16T02:55:03.581Z,99.99
2022-12-16T02:56:03.598Z,99.99
2022-12-16T02:57:03.553Z,99.99
2022-12-16T02:58:03.522Z,99.99
2022-12-16T02:59:03.520Z,99.99
2022-12-16T03:00:03.512Z,99.99
2022-12-16T03:01:03.605Z,99.99
2022-12-16T03:02:03.621Z,99.99
2022-12-16T03:03:03.620Z,99.99
2022-12-16T03:04:03.471Z,99.99
2022-12-16T03:05:03.442Z,99.99
2022-12-16T03:06:03.480Z,99.99
2022-12-16T03:07:03.418Z,99.99
2022-12-16T03:08:03.402Z,99.99
2022-12-16T03:09:03.399Z,99.99
2022-12-16T03:10:03.372Z,99.99
2022-12-16T03:11:03.423Z,99.99
2022-12-16T03:12:03.352Z,99.99
2022-12-16T03:13:03.369Z,99.99
2022-12-16T03:14:03.355Z,99.99
2022-12-16T03:15:03.354Z,99.99
2022-12-16T03:16:03.352Z,99.99
2022-12-16T03:17:03.374Z,99.99
2022-12-16T03:18:03.309Z,99.99
2022-12-16T03:19:03.289Z,99.99
2022-12-16T03:20:03.294Z,99.99
2022-12-16T03:21:03.316Z,99.99
2022-12-16T03:22:03.274Z,99.99
2022-12-16T03:23:03.254Z,99.99
2022-12-16T03:24:03.261Z,99.99
2022-12-16T03:25:03.216Z,99.99
2022-12-16T03:26:03.238Z,99.99
2022-12-16T03:27:03.209Z,99.99
2022-12-16T03:28:03.202Z,99.99
2022-12-16T03:29:03.177Z,99.99
2022-12-16T03:30:03.186Z,99.99
2022-12-16T03:31:03.286Z,99.99
2022-12-16T03:32:03.169Z,99.99
2022-12-16T03:33:03.152Z,99.99
2022-12-16T03:34:03.130Z,99.99
2022-12-16T03:35:03.134Z,99.99
2022-12-16T03:36:03.159Z,99.99
2022-12-16T03:37:03.110Z,99.99
2022-12-16T03:38:03.089Z,99.99
2022-12-16T03:39:03.066Z,99.99
2022-12-16T03:40:03.049Z,99.99
2022-12-16T03:41:03.070Z,99.99
2022-12-16T03:42:03.042Z,99.99
2022-12-16T03:43:03.038Z,99.99
2022-12-16T03:44:03.023Z,99.99
2022-12-16T03:45:03.011Z,99.99
2022-12-16T03:46:03.132Z,99.99
2022-12-16T03:47:02.981Z,99.99
2022-12-16T03:48:02.997Z,99.99
2022-12-16T03:49:02.971Z,99.99
2022-12-16T03:50:02.999Z,99.99
2022-12-16T03:51:03.002Z,99.99
2022-12-16T03:52:02.953Z,99.99
2022-12-16T03:53:02.940Z,99.99
2022-12-16T03:54:02.905Z,99.99
2022-12-16T03:55:02.913Z,99.99
2022-12-16T03:56:02.943Z,99.99
2022-12-16T03:57:02.894Z,99.99
2022-12-16T03:58:02.870Z,99.99
2022-12-16T03:59:02.847Z,99.99
2022-12-16T04:00:02.848Z,99.99
2022-12-16T04:01:02.878Z,99.99
2022-12-16T04:02:02.945Z,99.99
2022-12-16T04:03:03.077Z,99.99
2022-12-16T04:04:02.928Z,99.99
2022-12-16T04:05:02.796Z,99.99
2022-12-16T04:06:02.816Z,99.99
2022-12-16T04:07:02.771Z,99.99
2022-12-16T04:08:02.762Z,99.99
2022-12-16T04:09:02.759Z,99.99
2022-12-16T04:10:02.726Z,99.99
2022-12-16T04:11:02.763Z,99.99
2022-12-16T04:12:02.704Z,99.99
2022-12-16T04:13:02.696Z,99.99
2022-12-16T04:14:02.702Z,99.99
2022-12-16T04:15:02.689Z,99.99
2022-12-16T04:16:02.839Z,99.99
2022-12-16T04:17:02.701Z,99.99
2022-12-16T04:18:02.651Z,99.99
2022-12-16T04:19:02.631Z,99.99
2022-12-16T04:20:02.628Z,99.99
2022-12-16T04:21:02.613Z,99.99
2022-12-16T04:22:02.630Z,99.99
2022-12-16T04:23:02.591Z,99.99
2022-12-16T04:24:02.569Z,99.99
2022-12-16T04:25:02.563Z,99.99
2022-12-16T04:26:02.549Z,99.99
2022-12-16T04:27:02.597Z,99.99
2022-12-16T04:28:02.529Z,99.99
2022-12-16T04:29:02.535Z,99.99
2022-12-16T04:30:02.526Z,99.99
2022-12-16T04:31:02.545Z,99.99
2022-12-16T04:32:02.541Z,99.99
2022-12-16T04:33:02.498Z,99.99
2022-12-16T04:34:02.476Z,99.99
2022-12-16T04:35:02.495Z,99.99
2022-12-16T04:36:02.444Z,99.99
2022-12-16T04:37:02.455Z,99.99
2022-12-16T04:38:02.426Z,99.99
2022-12-16T04:39:02.432Z,99.99
2022-12-16T04:40:02.415Z,99.99
2022-12-16T04:41:02.389Z,99.99
2022-12-16T04:42:02.439Z,99.99
2022-12-16T04:43:02.365Z,99.99
2022-12-16T04:44:02.344Z,99.99
2022-12-16T04:45:02.351Z,99.99
2022-12-16T04:46:02.387Z,99.99
2022-12-16T04:47:02.378Z,99.99
2022-12-16T04:48:02.311Z,99.99
2022-12-16T04:49:02.308Z,99.99
2022-12-16T04:50:02.271Z,99.99
2022-12-16T04:51:02.297Z,99.99
2022-12-16T04:52:02.307Z,99.99
2022-12-16T04:53:02.274Z,99.99
2022-12-16T04:54:02.249Z,99.99
2022-12-16T04:55:02.227Z,99.99
2022-12-16T04:56:04.515Z,99.99
2022-12-16T04:57:02.260Z,99.99
2022-12-16T04:58:02.208Z,99.99
2022-12-16T04:59:02.196Z,99.99
2022-12-16T05:00:02.191Z,99.99
2022-12-16T05:01:02.172Z,99.99
2022-12-16T05:02:02.398Z,99.99
2022-12-16T05:03:02.158Z,99.99
2022-12-16T05:04:02.209Z,99.99
2022-12-16T05:05:02.141Z,99.99
2022-12-16T05:06:02.156Z,99.99
2022-12-16T05:07:02.185Z,99.99
2022-12-16T05:08:02.109Z,99.99
2022-12-16T05:09:02.096Z,99.99
2022-12-16T05:10:02.086Z,99.99
2022-12-16T05:11:02.077Z,99.99
2022-12-16T05:12:02.057Z,99.99
2022-12-16T05:13:02.072Z,99.99
2022-12-16T05:14:02.020Z,99.99
2022-12-16T05:15:02.005Z,99.99
2022-12-16T05:16:02.073Z,99.99
2022-12-16T05:17:01.995Z,99.99
2022-12-16T05:18:02.048Z,99.99
2022-12-16T05:19:01.976Z,99.99
2022-12-16T05:20:01.967Z,99.99
2022-12-16T05:21:01.954Z,99.99
2022-12-16T05:22:01.948Z,99.99
2022-12-16T05:23:01.976Z,99.99
2022-12-16T05:24:01.916Z,99.99
2022-12-16T05:25:01.915Z,99.99
2022-12-16T05:26:01.879Z,99.99
2022-12-16T05:27:01.900Z,99.99
2022-12-16T05:28:01.938Z,99.99
2022-12-16T05:29:01.863Z,99.99
2022-12-16T05:30:01.862Z,99.99
2022-12-16T05:31:01.879Z,99.99
2022-12-16T05:32:01.837Z,99.99
2022-12-16T05:33:01.875Z,99.99
2022-12-16T05:34:01.808Z,99.99
2022-12-16T05:35:01.786Z,99.99
2022-12-16T05:36:01.791Z,99.99
2022-12-16T05:37:01.769Z,99.99
2022-12-16T05:38:01.795Z,99.99
2022-12-16T05:39:01.749Z,99.99
2022-12-16T05:40:01.743Z,99.99
2022-12-16T05:41:01.732Z,99.99
2022-12-16T05:42:01.735Z,99.99
2022-12-16T05:43:01.768Z,99.99
2022-12-16T05:44:01.690Z,99.99
2022-12-16T05:45:01.678Z,99.99
2022-12-16T05:46:01.860Z,99.99
2022-12-16T05:47:01.848Z,99.99
2022-12-16T05:48:01.692Z,99.99
2022-12-16T05:49:01.643Z,99.99
2022-12-16T05:50:01.640Z,99.99
2022-12-16T05:51:01.632Z,99.99
2022-12-16T05:52:01.608Z,99.99
2022-12-16T05:53:01.646Z,99.99
2022-12-16T05:54:01.596Z,99.99
2022-12-16T05:55:01.598Z,99.99
2022-12-16T05:56:03.915Z,99.99
2022-12-16T05:57:01.539Z,99.99
2022-12-16T05:58:01.585Z,99.99
2022-12-16T05:59:01.529Z,99.99
2022-12-16T06:00:01.576Z,99.99
2022-12-16T06:01:01.506Z,99.99
2022-12-16T06:02:01.611Z,99.99
2022-12-16T06:03:01.661Z,99.99
2022-12-16T06:04:01.561Z,99.99
2022-12-16T06:05:01.474Z,99.99
2022-12-16T06:06:01.452Z,99.99
2022-12-16T06:07:01.438Z,99.99
2022-12-16T06:08:01.475Z,99.99
2022-12-16T06:09:01.443Z,99.99
2022-12-16T06:10:01.416Z,99.99
2022-12-16T06:11:01.420Z,99.99
2022-12-16T06:12:01.401Z,99.99
2022-12-16T06:13:01.409Z,99.99
2022-12-16T06:14:01.354Z,99.99
2022-12-16T06:15:01.338Z,99.99
2022-12-16T06:16:06.709Z,99.99
2022-12-16T06:17:02.341Z,99.99
2022-12-16T06:18:01.378Z,99.99
2022-12-16T06:19:01.307Z,99.99
2022-12-16T06:20:01.340Z,99.99
2022-12-16T06:21:01.294Z,99.99
2022-12-16T06:22:01.285Z,99.99
2022-12-16T06:23:01.291Z,99.99
2022-12-16T06:24:01.297Z,99.99
2022-12-16T06:25:01.268Z,99.99
2022-12-16T06:26:01.237Z,99.99
2022-12-16T06:27:01.224Z,99.99
2022-12-16T06:28:01.209Z,99.99
2022-12-16T06:29:01.240Z,99.99
2022-12-16T06:30:01.220Z,99.99
2022-12-16T06:31:01.183Z,99.99
2022-12-16T06:32:01.253Z,99.99
2022-12-16T06:33:01.196Z,99.99
2022-12-16T06:34:01.182Z,99.99
2022-12-16T06:35:01.131Z,99.99
2022-12-16T06:36:01.148Z,99.99
2022-12-16T06:37:01.119Z,99.99
2022-12-16T06:38:01.116Z,99.99
2022-12-16T06:39:01.141Z,99.99
2022-12-16T06:40:01.100Z,99.99
2022-12-16T06:41:01.060Z,99.99
2022-12-16T06:42:01.072Z,99.99
2022-12-16T06:43:01.044Z,99.99
2022-12-16T06:44:01.086Z,99.99
2022-12-16T06:45:01.035Z,99.99
2022-12-16T06:46:01.031Z,99.99
2022-12-16T06:47:01.009Z,99.99
2022-12-16T06:48:00.992Z,99.99
2022-12-16T06:49:01.022Z,99.99
2022-12-16T06:50:00.975Z,99.99
2022-12-16T06:51:00.973Z,99.99
2022-12-16T06:52:00.949Z,99.99
2022-12-16T06:53:00.954Z,99.99
2022-12-16T06:54:00.954Z,99.99
2022-12-16T06:55:00.906Z,99.99
2022-12-16T06:56:00.928Z,99.99
2022-12-16T06:57:00.888Z,99.99
2022-12-16T06:58:01.841Z,99.99
2022-12-16T06:59:00.916Z,99.99
2022-12-16T07:00:01.405Z,99.99
2022-12-16T07:01:00.960Z,99.99
2022-12-16T07:02:00.977Z,99.99
2022-12-16T07:03:00.940Z,99.99
2022-12-16T07:04:00.859Z,99.99
2022-12-16T07:05:00.810Z,99.99
2022-12-16T07:06:00.824Z,99.99
2022-12-16T07:07:00.788Z,99.99
2022-12-16T07:08:00.786Z,99.99
2022-12-16T07:09:00.796Z,99.99
2022-12-16T07:10:00.754Z,99.99
2022-12-16T07:11:13.816Z,99.99
2022-12-16T07:12:01.730Z,99.99
2022-12-16T07:13:00.709Z,99.99
2022-12-16T07:14:00.758Z,99.99
2022-12-16T07:15:00.690Z,99.99
2022-12-16T07:16:00.755Z,99.99
2022-12-16T07:17:00.688Z,99.99
2022-12-16T07:18:00.674Z,99.99
2022-12-16T07:19:00.634Z,99.99
2022-12-16T07:20:00.665Z,99.99
2022-12-16T07:21:00.623Z,99.99
2022-12-16T07:22:00.634Z,99.99
2022-12-16T07:23:07.808Z,99.99
2022-12-16T07:24:01.608Z,99.99
2022-12-16T07:25:00.633Z,99.99
2022-12-16T07:26:00.566Z,99.99
2022-12-16T07:27:00.574Z,99.99
2022-12-16T07:28:00.551Z,99.99
2022-12-16T07:29:00.548Z,99.99
2022-12-16T07:30:00.579Z,99.99
2022-12-16T07:31:00.521Z,99.99
2022-12-16T07:32:00.580Z,99.99
2022-12-16T07:33:00.508Z,99.99
2022-12-16T07:34:00.495Z,99.99
2022-12-16T07:35:00.514Z,99.99
2022-12-16T07:36:00.492Z,99.99
2022-12-16T07:37:00.443Z,99.99
2022-12-16T07:38:00.452Z,99.99
2022-12-16T07:39:00.423Z,99.99
2022-12-16T07:40:00.468Z,99.99
2022-12-16T07:41:00.417Z,99.99
2022-12-16T07:42:00.434Z,99.99
2022-12-16T07:43:00.403Z,99.99
2022-12-16T07:44:00.369Z,99.99
2022-12-16T07:45:00.409Z,99.99
2022-12-16T07:46:00.479Z,99.99
2022-12-16T07:47:00.355Z,99.99
2022-12-16T07:48:00.342Z,99.99
2022-12-16T07:49:00.308Z,99.99
2022-12-16T07:50:00.342Z,99.99
2022-12-16T07:51:00.298Z,99.99
2022-12-16T07:52:00.290Z,99.99
2022-12-16T07:53:00.263Z,99.99
2022-12-16T07:54:00.278Z,99.99
2022-12-16T07:55:00.313Z,99.99
2022-12-16T07:56:00.266Z,99.99
2022-12-16T07:57:00.228Z,99.99
2022-12-16T07:58:00.248Z,99.99
2022-12-16T07:59:00.233Z,99.99
2022-12-16T08:00:00.230Z,99.99
2022-12-16T08:01:03.747Z,99.99
2022-12-16T08:02:01.297Z,99.99
2022-12-16T08:03:00.381Z,99.99
2022-12-16T08:04:00.220Z,99.99
2022-12-16T08:05:00.169Z,99.99
2022-12-16T08:06:00.125Z,99.99
2022-12-16T08:07:00.146Z,99.99
2022-12-16T08:08:00.108Z,99.99
2022-12-16T08:09:00.086Z,99.99
2022-12-16T08:10:00.135Z,99.99
2022-12-16T08:11:00.102Z,99.99
2022-12-16T08:12:00.084Z,99.99
2022-12-16T08:13:00.064Z,99.99
2022-12-16T08:14:00.044Z,99.99
2022-12-16T08:15:00.115Z,99.99
2022-12-16T08:16:00.037Z,99.99
2022-12-16T08:17:00.078Z,99.99
2022-12-16T08:18:00.008Z,99.99
2022-12-16T08:18:59.989Z,99.99
2022-12-16T08:19:59.977Z,99.99
2022-12-16T08:21:00.002Z,99.99
2022-12-16T08:21:59.950Z,99.99
2022-12-16T08:22:59.945Z,99.99
2022-12-16T08:23:59.957Z,99.99
2022-12-16T08:24:59.929Z,99.99
2022-12-16T08:25:59.950Z,99.99
2022-12-16T08:26:59.886Z,99.99
2022-12-16T08:27:59.910Z,99.99
2022-12-16T08:29:26.861Z,99.99
2022-12-16T08:30:00.877Z,99.99
2022-12-16T08:30:59.935Z,99.99
2022-12-16T08:31:59.854Z,99.99
2022-12-16T08:33:07.171Z,99.99
2022-12-16T08:34:00.852Z,99.99
2022-12-16T08:34:59.812Z,99.99
2022-12-16T08:35:59.879Z,99.99
2022-12-16T08:36:59.812Z,99.99
2022-12-16T08:37:59.784Z,99.99
2022-12-16T08:38:59.788Z,99.99
2022-12-16T08:40:33.238Z,99.99
2022-12-16T08:41:00.797Z,99.99
2022-12-16T08:41:59.759Z,99.99
2022-12-16T08:42:59.749Z,99.99
2022-12-16T08:43:59.729Z,99.99
2022-12-16T08:44:59.726Z,99.99
2022-12-16T08:45:59.791Z,99.99
2022-12-16T08:46:59.691Z,99.99
2022-12-16T08:47:59.724Z,99.99
2022-12-16T08:48:59.671Z,99.99
2022-12-16T08:50:01.899Z,99.99
2022-12-16T08:50:59.686Z,99.99
2022-12-16T08:51:59.633Z,99.99
2022-12-16T08:52:59.614Z,99.99
2022-12-16T08:53:59.631Z,99.99
2022-12-16T08:54:59.617Z,99.99
2022-12-16T08:55:59.644Z,99.99
2022-12-16T08:56:59.595Z,99.99
2022-12-16T08:57:59.598Z,99.99
2022-12-16T08:58:59.576Z,99.99
2022-12-16T08:59:59.570Z,99.99
2022-12-16T09:01:06.257Z,99.99
2022-12-16T09:02:00.675Z,99.99
2022-12-16T09:02:59.700Z,99.99
2022-12-16T09:03:59.634Z,99.99
2022-12-16T09:04:59.525Z,99.99
2022-12-16T09:05:59.493Z,99.99
2022-12-16T09:06:59.525Z,99.99
2022-12-16T09:07:59.474Z,99.99
2022-12-16T09:08:59.465Z,99.99
2022-12-16T09:09:59.472Z,99.99
2022-12-16T09:10:59.450Z,99.99
2022-12-16T09:11:59.503Z,99.99
2022-12-16T09:12:59.421Z,99.99
2022-12-16T09:13:59.410Z,99.99
2022-12-16T09:14:59.389Z,99.99
2022-12-16T09:15:59.451Z,99.99
2022-12-16T09:16:59.421Z,99.99
2022-12-16T09:17:59.382Z,99.99
2022-12-16T09:18:59.347Z,99.99
2022-12-16T09:19:59.351Z,99.99
2022-12-16T09:20:59.351Z,99.99
2022-12-16T09:21:59.352Z,99.99
2022-12-16T09:22:59.302Z,99.99
2022-12-16T09:23:59.280Z,99.99
2022-12-16T09:24:59.274Z,99.99
2022-12-16T09:25:59.382Z,99.99
2022-12-16T09:26:59.329Z,99.99
2022-12-16T09:27:59.260Z,99.99
2022-12-16T09:28:59.226Z,99.99
2022-12-16T09:29:59.223Z,99.99
2022-12-16T09:30:59.318Z,99.99
2022-12-16T09:31:59.252Z,99.99
2022-12-16T09:32:59.213Z,99.99
2022-12-16T09:33:59.201Z,99.99
2022-12-16T09:34:59.167Z,99.99
2022-12-16T09:35:59.184Z,99.99
2022-12-16T09:36:59.210Z,99.99
2022-12-16T09:37:59.282Z,99.99
2022-12-16T09:38:59.148Z,99.99
2022-12-16T09:39:59.116Z,99.99
2022-12-16T09:40:59.132Z,99.99
2022-12-16T09:41:59.151Z,99.99
2022-12-16T09:42:59.096Z,99.99
2022-12-16T09:43:59.075Z,99.99
2022-12-16T09:44:59.091Z,99.99
2022-12-16T09:45:59.153Z,99.99
2022-12-16T09:47:02.171Z,99.99
2022-12-16T09:48:00.030Z,99.99
2022-12-16T09:48:59.020Z,99.99
2022-12-16T09:49:59.016Z,99.99
2022-12-16T09:50:58.999Z,99.99
2022-12-16T09:51:59.000Z,99.99
2022-12-16T09:52:59.003Z,99.80
2022-12-16T09:53:58.950Z,99.99
2022-12-16T09:54:58.931Z,99.99
2022-12-16T09:55:58.939Z,99.99
2022-12-16T09:56:58.931Z,99.99
2022-12-16T09:57:58.993Z,99.99
2022-12-16T09:58:58.913Z,99.99
2022-12-16T09:59:58.894Z,99.91
2022-12-16T10:00:58.906Z,99.99
2022-12-16T10:01:58.965Z,99.80
2022-12-16T10:03:03.388Z,99.49
2022-12-16T10:03:59.892Z,99.91
2022-12-16T10:04:58.844Z,99.99
2022-12-16T10:05:58.838Z,99.99
2022-12-16T10:06:58.819Z,99.38
2022-12-16T10:07:58.835Z,99.22
2022-12-16T10:08:58.814Z,99.32
2022-12-16T10:09:58.772Z,99.22
2022-12-16T10:10:58.788Z,99.32
2022-12-16T10:11:58.756Z,98.90
2022-12-16T10:12:58.779Z,99.22
2022-12-16T10:13:58.735Z,99.32
2022-12-16T10:14:58.736Z,99.48
2022-12-16T10:15:58.764Z,99.58
2022-12-16T10:16:58.714Z,99.05
2022-12-16T10:17:58.754Z,99.05
2022-12-16T10:18:58.816Z,99.20
2022-12-16T10:19:58.663Z,99.20
2022-12-16T10:20:58.673Z,99.10
2022-12-16T10:21:58.655Z,98.99
2022-12-16T10:22:58.692Z,99.20
2022-12-16T10:23:58.614Z,99.41
2022-12-16T10:24:58.627Z,99.35
2022-12-16T10:25:58.604Z,99.14
2022-12-16T10:26:58.711Z,99.46
2022-12-16T10:27:58.619Z,99.46
2022-12-16T10:28:58.579Z,99.57
2022-12-16T10:29:58.579Z,99.40
2022-12-16T10:30:58.595Z,99.99
2022-12-16T10:31:58.552Z,99.51
2022-12-16T10:32:58.589Z,99.82
2022-12-16T10:33:58.539Z,99.93
2022-12-16T10:34:58.513Z,99.87
2022-12-16T10:35:58.513Z,99.99
2022-12-16T10:36:58.497Z,99.99
2022-12-16T10:37:58.494Z,99.99
2022-12-16T10:38:58.537Z,99.99
2022-12-16T10:39:58.470Z,99.99
2022-12-16T10:40:58.448Z,99.93
2022-12-16T10:41:58.437Z,99.93
2022-12-16T10:42:58.448Z,99.61
2022-12-16T10:43:58.481Z,99.51
2022-12-16T10:44:58.411Z,99.51
2022-12-16T10:45:58.414Z,99.61
2022-12-16T10:46:58.439Z,99.46
2022-12-16T10:47:58.374Z,99.35
2022-12-16T10:48:58.460Z,98.50
2022-12-16T10:49:58.451Z,98.50
2022-12-16T10:50:58.343Z,98.50
2022-12-16T10:51:58.333Z,98.82
2022-12-16T10:52:58.338Z,98.24
2022-12-16T10:53:58.333Z,98.66
2022-12-16T10:54:58.289Z,99.19
2022-12-16T10:55:58.283Z,98.97
2022-12-16T10:56:58.276Z,98.76
2022-12-16T10:57:58.272Z,98.97
2022-12-16T10:58:58.299Z,99.19
2022-12-16T10:59:58.261Z,99.14
2022-12-16T11:00:58.235Z,99.41
2022-12-16T11:01:58.312Z,98.43
2022-12-16T11:02:58.429Z,97.65
2022-12-16T11:03:58.316Z,97.61
2022-12-16T11:04:58.225Z,96.45
2022-12-16T11:05:58.175Z,96.93
2022-12-16T11:06:58.185Z,96.47
2022-12-16T11:07:58.161Z,95.05
2022-12-16T11:08:58.190Z,92.58
2022-12-16T11:09:58.130Z,90.06
2022-12-16T11:10:58.146Z,90.92
2022-12-16T11:11:58.109Z,93.32
2022-12-16T11:12:58.118Z,93.57
2022-12-16T11:13:58.094Z,91.60
2022-12-16T11:15:28.866Z,86.25
2022-12-16T11:15:59.084Z,85.27
2022-12-16T11:16:58.065Z,86.70
2022-12-16T11:17:58.051Z,83.56
2022-12-16T11:18:58.035Z,86.04
2022-12-16T11:19:58.052Z,85.16
2022-12-16T11:20:58.025Z,81.70
2022-12-16T11:21:58.021Z,78.11
2022-12-16T11:22:57.996Z,78.95
2022-12-16T11:23:57.965Z,83.38
2022-12-16T11:24:57.999Z,83.30
2022-12-16T11:25:57.940Z,82.18
2022-12-16T11:26:57.960Z,79.68
2022-12-16T11:27:57.931Z,77.87
2022-12-16T11:28:58.018Z,81.76
2022-12-16T11:29:57.939Z,81.06
2022-12-16T11:30:57.949Z,78.73
2022-12-16T11:31:59.769Z,77.93
2022-12-16T11:32:57.881Z,76.47
2022-12-16T11:33:57.869Z,77.17
2022-12-16T11:34:57.887Z,75.64
2022-12-16T11:35:57.850Z,72.47
2022-12-16T11:36:57.841Z,76.51
2022-12-16T11:37:57.832Z,79.49
2022-12-16T11:38:57.808Z,78.20
2022-12-16T11:39:57.822Z,77.34
2022-12-16T11:40:57.801Z,78.24
2022-12-16T11:41:57.775Z,77.13
2022-12-16T11:43:01.192Z,74.80
2022-12-16T11:43:58.758Z,73.72
2022-12-16T11:44:57.797Z,73.90
2022-12-16T11:45:57.757Z,73.96
2022-12-16T11:46:57.768Z,78.08
2022-12-16T11:47:57.704Z,79.16
2022-12-16T11:48:57.707Z,80.27
2022-12-16T11:49:57.706Z,80.69
2022-12-16T11:50:57.695Z,78.50
2022-12-16T11:52:21.203Z,82.65
2022-12-16T11:52:58.661Z,81.82
2022-12-16T11:53:57.636Z,81.34
2022-12-16T11:54:57.638Z,83.86
2022-12-16T11:56:10.770Z,83.79
2022-12-16T11:56:58.667Z,82.78
2022-12-16T11:57:57.583Z,83.89
2022-12-16T11:58:57.587Z,83.83
2022-12-16T11:59:57.583Z,84.98
2022-12-16T12:00:57.605Z,85.96
2022-12-16T12:01:57.633Z,85.86
2022-12-16T12:02:57.593Z,86.43
2022-12-16T12:03:57.703Z,86.32
2022-12-16T12:04:57.517Z,87.10
2022-12-16T12:05:57.565Z,89.26
2022-12-16T12:06:57.507Z,88.99
2022-12-16T12:07:57.492Z,88.29
2022-12-16T12:08:57.491Z,89.76
2022-12-16T12:09:57.465Z,89.34
2022-12-16T12:10:57.485Z,89.59
2022-12-16T12:11:57.453Z,90.16
2022-12-16T12:12:57.445Z,90.20
2022-12-16T12:13:57.428Z,90.98
2022-12-16T12:14:57.408Z,91.34
2022-12-16T12:15:57.471Z,92.58
2022-12-16T12:16:57.390Z,94.27
2022-12-16T12:17:57.374Z,94.95
2022-12-16T12:18:57.375Z,95.48
2022-12-16T12:19:57.355Z,96.22
2022-12-16T12:20:57.377Z,96.53
2022-12-16T12:21:57.319Z,96.64
2022-12-16T12:22:57.329Z,96.75
2022-12-16T12:23:57.312Z,96.85
2022-12-16T12:24:58.203Z,96.95
2022-12-16T12:25:57.330Z,96.85
2022-12-16T12:26:57.267Z,96.64
2022-12-16T12:27:57.237Z,97.17
2022-12-16T12:28:57.246Z,97.17
2022-12-16T12:29:57.217Z,97.11
2022-12-16T12:30:57.293Z,97.49
2022-12-16T12:31:57.262Z,97.69
2022-12-16T12:32:57.210Z,97.69
2022-12-16T12:33:57.198Z,97.59
2022-12-16T12:34:57.192Z,97.59
2022-12-16T12:35:57.214Z,97.55
2022-12-16T12:36:57.166Z,97.23
2022-12-16T12:37:57.142Z,97.02
2022-12-16T12:38:57.151Z,97.33
2022-12-16T12:39:57.113Z,97.39
2022-12-16T12:40:57.141Z,96.87
2022-12-16T12:41:57.109Z,96.87
2022-12-16T12:42:57.114Z,96.97
2022-12-16T12:43:57.070Z,97.14
2022-12-16T12:44:57.092Z,97.56
2022-12-16T12:45:57.124Z,97.83
2022-12-16T12:46:57.102Z,98.21
2022-12-16T12:47:57.039Z,98.17
2022-12-16T12:48:57.799Z,96.53
2022-12-16T12:49:57.034Z,94.63
2022-12-16T12:50:57.052Z,94.21
2022-12-16T12:51:56.989Z,94.21